createdAt,value
2023-04-02T00:00:50.720Z,43.49
2023-04-02T00:01:50.756Z,43.35
2023-04-02T00:02:50.825Z,42.97
2023-04-02T00:03:50.754Z,42.88
2023-04-02T00:04:50.695Z,42.96
2023-04-02T00:05:51.042Z,42.95
2023-04-02T00:06:50.680Z,42.97
2023-04-02T00:07:50.687Z,42.93
2023-04-02T00:08:50.689Z,42.97
2023-04-02T00:09:50.670Z,43.04
2023-04-02T00:10:50.666Z,43.16
2023-04-02T00:11:50.663Z,43.40
2023-04-02T00:12:50.653Z,43.21
2023-04-02T00:13:50.634Z,43.27
2023-04-02T00:14:50.641Z,43.27
2023-04-02T00:15:50.633Z,43.53
2023-04-02T00:16:50.652Z,43.31
2023-04-02T00:17:50.649Z,43.24
2023-04-02T00:18:50.608Z,43.20
2023-04-02T00:19:50.592Z,43.00
2023-04-02T00:20:50.602Z,43.05
2023-04-02T00:21:50.604Z,43.05
2023-04-02T00:22:50.581Z,43.00
2023-04-02T00:23:50.593Z,43.20
2023-04-02T00:24:50.588Z,43.34
2023-04-02T00:25:50.557Z,43.16
2023-04-02T00:26:50.580Z,43.53
2023-04-02T00:27:50.547Z,43.65
2023-04-02T00:28:50.538Z,43.70
2023-04-02T00:29:50.545Z,43.59
2023-04-02T00:30:50.573Z,43.37
2023-04-02T00:31:50.615Z,43.28
2023-04-02T00:32:50.668Z,43.72
2023-04-02T00:33:50.637Z,43.70
2023-04-02T00:34:50.655Z,43.26
2023-04-02T00:35:50.748Z,43.50
2023-04-02T00:36:50.671Z,43.62
2023-04-02T00:37:50.690Z,43.77
2023-04-02T00:38:50.715Z,43.91
2023-04-02T00:39:50.716Z,43.94
2023-04-02T00:40:50.718Z,43.93
2023-04-02T00:41:50.736Z,44.08
2023-04-02T00:42:50.733Z,44.29
2023-04-02T00:43:50.832Z,44.12
2023-04-02T00:44:50.815Z,43.99
2023-04-02T00:45:50.864Z,44.15
2023-04-02T00:46:50.850Z,44.32
2023-04-02T00:47:50.940Z,43.99
2023-04-02T00:48:50.892Z,43.85
2023-04-02T00:49:50.929Z,44.20
2023-04-02T00:50:50.977Z,44.43
2023-04-02T00:51:51.021Z,44.56
2023-04-02T00:52:51.071Z,44.74
2023-04-02T00:53:51.143Z,44.40
2023-04-02T00:54:51.183Z,44.36
2023-04-02T00:55:51.230Z,44.43
2023-04-02T00:56:51.279Z,44.12
2023-04-02T00:57:51.344Z,43.89
2023-04-02T00:58:51.366Z,43.87
2023-04-02T00:59:51.414Z,43.84
2023-04-02T01:00:51.471Z,43.76
2023-04-02T01:01:51.601Z,43.78
2023-04-02T01:02:51.626Z,43.52
2023-04-02T01:03:51.610Z,43.75
2023-04-02T01:04:51.599Z,43.74
2023-04-02T01:05:51.637Z,43.87
2023-04-02T01:06:51.673Z,43.86
2023-04-02T01:07:51.712Z,44.25
2023-04-02T01:08:51.736Z,44.29
2023-04-02T01:09:51.789Z,44.51
2023-04-02T01:10:51.804Z,44.57
2023-04-02T01:11:51.836Z,44.65
2023-04-02T01:12:51.864Z,44.76
2023-04-02T01:13:51.915Z,44.56
2023-04-02T01:14:51.939Z,44.41
2023-04-02T01:15:51.998Z,44.52
2023-04-02T01:16:52.014Z,44.56
2023-04-02T01:17:52.110Z,44.69
2023-04-02T01:18:52.091Z,44.63
2023-04-02T01:19:52.132Z,44.62
2023-04-02T01:20:52.177Z,44.85
2023-04-02T01:21:52.226Z,44.85
2023-04-02T01:22:52.317Z,44.59
2023-04-02T01:23:52.309Z,44.88
2023-04-02T01:24:52.354Z,44.83
2023-04-02T01:25:52.443Z,45.24
2023-04-02T01:26:52.474Z,45.01
2023-04-02T01:27:52.501Z,45.05
2023-04-02T01:28:52.531Z,45.04
2023-04-02T01:29:52.594Z,44.85
2023-04-02T01:30:52.629Z,44.87
2023-04-02T01:31:52.670Z,44.96
2023-04-02T01:32:52.702Z,45.11
2023-04-02T01:33:52.764Z,45.12
2023-04-02T01:34:52.768Z,45.09
2023-04-02T01:35:52.833Z,45.03
2023-04-02T01:36:52.837Z,44.94
2023-04-02T01:37:52.902Z,44.84
2023-04-02T01:38:52.919Z,44.82
2023-04-02T01:39:52.947Z,44.67
2023-04-02T01:40:53.012Z,44.90
2023-04-02T01:41:53.061Z,44.88
2023-04-02T01:42:53.123Z,44.90
2023-04-02T01:43:53.150Z,44.78
2023-04-02T01:44:53.206Z,44.60
2023-04-02T01:45:53.245Z,44.80
2023-04-02T01:46:53.329Z,45.06
2023-04-02T01:47:53.476Z,44.99
2023-04-02T01:48:53.401Z,45.07
2023-04-02T01:49:53.441Z,45.19
2023-04-02T01:50:53.479Z,45.13
2023-04-02T01:51:53.515Z,45.14
2023-04-02T01:52:53.538Z,45.47
2023-04-02T01:53:53.577Z,45.30
2023-04-02T01:54:53.588Z,45.32
2023-04-02T01:55:53.652Z,45.38
2023-04-02T01:56:53.699Z,45.42
2023-04-02T01:57:53.715Z,45.09
2023-04-02T01:58:53.730Z,44.89
2023-04-02T01:59:53.781Z,44.90
2023-04-02T02:00:53.885Z,44.79
2023-04-02T02:01:53.869Z,44.66
2023-04-02T02:02:53.936Z,44.52
2023-04-02T02:03:53.921Z,44.81
2023-04-02T02:04:54.252Z,44.92
2023-04-02T02:05:54.017Z,44.97
2023-04-02T02:06:54.088Z,44.87
2023-04-02T02:07:54.138Z,44.99
2023-04-02T02:08:54.198Z,44.95
2023-04-02T02:09:54.265Z,44.68
2023-04-02T02:10:54.298Z,44.38
2023-04-02T02:11:54.349Z,44.38
2023-04-02T02:12:54.445Z,44.46
2023-04-02T02:13:54.477Z,44.48
2023-04-02T02:14:54.513Z,44.26
2023-04-02T02:15:54.595Z,44.34
2023-04-02T02:16:54.658Z,44.31
2023-04-02T02:17:54.742Z,44.44
2023-04-02T02:18:54.770Z,44.38
2023-04-02T02:19:54.814Z,44.55
2023-04-02T02:20:54.896Z,44.52
2023-04-02T02:21:54.943Z,44.54
2023-04-02T02:22:54.995Z,45.05
2023-04-02T02:23:55.055Z,45.20
2023-04-02T02:24:55.131Z,45.28
2023-04-02T02:25:55.144Z,45.47
2023-04-02T02:26:55.219Z,45.90
2023-04-02T02:27:55.276Z,46.09
2023-04-02T02:28:55.304Z,46.32
2023-04-02T02:29:55.322Z,46.35
2023-04-02T02:30:55.370Z,45.98
2023-04-02T02:31:55.458Z,45.92
2023-04-02T02:32:55.490Z,46.18
2023-04-02T02:33:55.467Z,46.46
2023-04-02T02:34:55.524Z,46.28
2023-04-02T02:35:55.579Z,46.13
2023-04-02T02:36:55.677Z,46.53
2023-04-02T02:37:55.610Z,46.39
2023-04-02T02:38:55.658Z,46.37
2023-04-02T02:39:55.750Z,46.69
2023-04-02T02:40:55.760Z,46.68
2023-04-02T02:41:55.802Z,46.69
2023-04-02T02:42:55.851Z,46.83
2023-04-02T02:43:55.890Z,46.69
2023-04-02T02:44:55.923Z,46.77
2023-04-02T02:45:56.006Z,46.75
2023-04-02T02:46:56.001Z,46.94
2023-04-02T02:47:56.097Z,46.95
2023-04-02T02:48:56.077Z,46.80
2023-04-02T02:49:56.447Z,47.11
2023-04-02T02:50:56.153Z,47.18
2023-04-02T02:51:56.215Z,47.07
2023-04-02T02:52:56.249Z,47.08
2023-04-02T02:53:56.271Z,47.00
2023-04-02T02:54:56.329Z,46.64
2023-04-02T02:55:56.345Z,46.26
2023-04-02T02:56:56.416Z,46.16
2023-04-02T02:57:56.403Z,46.14
2023-04-02T02:58:56.423Z,46.22
2023-04-02T02:59:56.471Z,46.22
2023-04-02T03:00:56.550Z,46.31
2023-04-02T03:01:56.539Z,45.66
2023-04-02T03:02:56.895Z,45.59
2023-04-02T03:03:56.824Z,45.94
2023-04-02T03:04:56.677Z,46.15
2023-04-02T03:05:56.726Z,46.13
2023-04-02T03:06:56.752Z,46.33
2023-04-02T03:07:56.791Z,46.40
2023-04-02T03:08:56.830Z,46.41
2023-04-02T03:09:56.852Z,46.74
2023-04-02T03:10:56.884Z,46.73
2023-04-02T03:11:56.917Z,46.68
2023-04-02T03:12:56.984Z,46.57
2023-04-02T03:13:57.004Z,46.73
2023-04-02T03:14:57.025Z,46.49
2023-04-02T03:15:57.084Z,46.66
2023-04-02T03:16:57.118Z,46.90
2023-04-02T03:17:57.180Z,46.85
2023-04-02T03:18:57.192Z,46.92
2023-04-02T03:19:57.246Z,47.07
2023-04-02T03:20:57.283Z,47.26
2023-04-02T03:21:57.333Z,47.29
2023-04-02T03:22:57.380Z,47.12
2023-04-02T03:23:57.418Z,47.25
2023-04-02T03:24:57.470Z,47.11
2023-04-02T03:25:57.540Z,46.79
2023-04-02T03:26:57.572Z,46.98
2023-04-02T03:27:57.646Z,47.02
2023-04-02T03:28:57.687Z,47.08
2023-04-02T03:29:57.769Z,47.15
2023-04-02T03:30:57.823Z,47.16
2023-04-02T03:31:57.853Z,47.06
2023-04-02T03:32:57.926Z,47.22
2023-04-02T03:33:57.919Z,47.23
2023-04-02T03:34:57.947Z,47.22
2023-04-02T03:35:58.008Z,47.13
2023-04-02T03:36:58.018Z,47.16
2023-04-02T03:37:58.074Z,46.98
2023-04-02T03:38:58.080Z,46.96
2023-04-02T03:39:58.176Z,47.04
2023-04-02T03:40:58.161Z,46.54
2023-04-02T03:41:58.168Z,46.80
2023-04-02T03:42:58.210Z,46.77
2023-04-02T03:43:58.255Z,46.62
2023-04-02T03:44:58.299Z,46.68
2023-04-02T03:45:58.376Z,46.67
2023-04-02T03:46:58.394Z,46.55
2023-04-02T03:47:58.469Z,46.35
2023-04-02T03:48:58.459Z,46.36
2023-04-02T03:49:58.496Z,46.80
2023-04-02T03:50:58.539Z,46.96
2023-04-02T03:51:58.614Z,46.93
2023-04-02T03:52:58.644Z,46.92
2023-04-02T03:53:58.697Z,46.86
2023-04-02T03:54:58.765Z,47.08
2023-04-02T03:55:58.851Z,47.24
2023-04-02T03:56:58.903Z,47.23
2023-04-02T03:57:58.953Z,47.36
2023-04-02T03:58:58.987Z,47.40
2023-04-02T03:59:59.043Z,47.54
2023-04-02T04:00:59.112Z,47.63
2023-04-02T04:01:59.187Z,47.76
2023-04-02T04:02:59.195Z,47.80
2023-04-02T04:03:59.209Z,47.67
2023-04-02T04:04:59.217Z,47.60
2023-04-02T04:05:59.233Z,47.50
2023-04-02T04:06:59.270Z,47.53
2023-04-02T04:07:59.314Z,47.76
2023-04-02T04:08:59.326Z,47.41
2023-04-02T04:09:59.337Z,47.45
2023-04-02T04:10:59.442Z,47.51
2023-04-02T04:11:59.382Z,47.50
2023-04-02T04:12:59.394Z,47.09
2023-04-02T04:13:59.434Z,46.96
2023-04-02T04:14:59.441Z,46.90
2023-04-02T04:15:59.479Z,46.72
2023-04-02T04:16:59.510Z,46.64
2023-04-02T04:17:59.554Z,46.76
2023-04-02T04:18:59.514Z,46.78
2023-04-02T04:19:59.563Z,47.00
2023-04-02T04:20:59.555Z,47.05
2023-04-02T04:21:59.522Z,47.12
2023-04-02T04:22:59.553Z,46.95
2023-04-02T04:23:59.536Z,46.95
2023-04-02T04:24:59.549Z,46.85
2023-04-02T04:25:59.591Z,46.75
2023-04-02T04:26:59.583Z,46.68
2023-04-02T04:27:59.636Z,46.71
2023-04-02T04:28:59.698Z,46.58
2023-04-02T04:29:59.696Z,46.64
2023-04-02T04:30:59.719Z,46.59
2023-04-02T04:31:59.799Z,46.66
2023-04-02T04:32:59.774Z,46.63
2023-04-02T04:33:59.804Z,46.40
2023-04-02T04:34:59.812Z,46.22
2023-04-02T04:35:59.918Z,46.34
2023-04-02T04:36:59.820Z,46.25
2023-04-02T04:37:59.841Z,46.19
2023-04-02T04:38:59.880Z,46.38
2023-04-02T04:39:59.861Z,46.49
2023-04-02T04:40:59.863Z,46.44
2023-04-02T04:41:59.887Z,46.41
2023-04-02T04:42:59.881Z,46.68
2023-04-02T04:43:59.896Z,46.62
2023-04-02T04:44:59.897Z,46.79
2023-04-02T04:45:59.949Z,46.76
2023-04-02T04:46:59.945Z,46.75
2023-04-02T04:48:00.021Z,46.87
2023-04-02T04:48:59.966Z,46.78
2023-04-02T04:49:59.966Z,46.93
2023-04-02T04:50:59.994Z,46.76
2023-04-02T04:51:59.995Z,46.72
2023-04-02T04:53:00.024Z,46.76
2023-04-02T04:54:00.028Z,46.71
2023-04-02T04:55:00.104Z,46.78
2023-04-02T04:56:09.202Z,46.79
2023-04-02T04:57:01.104Z,46.71
2023-04-02T04:58:00.109Z,46.65
2023-04-02T04:59:00.050Z,46.57
2023-04-02T05:00:00.058Z,46.47
2023-04-02T05:01:00.027Z,46.61
2023-04-02T05:02:00.045Z,46.74
2023-04-02T05:03:00.047Z,46.85
2023-04-02T05:04:00.004Z,46.78
2023-04-02T05:05:00.098Z,46.63
2023-04-02T05:05:59.994Z,46.72
2023-04-02T05:06:59.990Z,46.84
2023-04-02T05:08:00.151Z,46.80
2023-04-02T05:08:59.964Z,46.88
2023-04-02T05:09:59.979Z,46.99
2023-04-02T05:11:00.004Z,47.17
2023-04-02T05:12:00.053Z,46.89
2023-04-02T05:13:00.113Z,46.76
2023-04-02T05:14:00.231Z,47.05
2023-04-02T05:15:00.179Z,47.04
2023-04-02T05:16:01.332Z,46.97
2023-04-02T05:17:00.252Z,46.68
2023-04-02T05:18:00.328Z,46.80
2023-04-02T05:19:00.333Z,46.83
2023-04-02T05:20:00.369Z,46.92
2023-04-02T05:21:00.404Z,47.12
2023-04-02T05:22:00.476Z,47.15
2023-04-02T05:23:00.503Z,47.26
2023-04-02T05:24:00.552Z,47.29
2023-04-02T05:25:00.597Z,47.34
2023-04-02T05:26:00.630Z,47.04
2023-04-02T05:27:00.670Z,46.91
2023-04-02T05:28:00.677Z,46.53
2023-04-02T05:29:00.702Z,46.49
2023-04-02T05:30:00.731Z,46.38
2023-04-02T05:31:00.783Z,46.35
2023-04-02T05:32:00.753Z,46.44
2023-04-02T05:33:00.847Z,46.49
2023-04-02T05:34:00.777Z,46.71
2023-04-02T05:35:00.789Z,46.99
2023-04-02T05:36:00.803Z,46.58
2023-04-02T05:37:00.834Z,46.51
2023-04-02T05:38:00.842Z,46.62
2023-04-02T05:39:00.884Z,46.53
2023-04-02T05:40:00.869Z,46.71
2023-04-02T05:41:00.877Z,46.49
2023-04-02T05:42:00.901Z,46.46
2023-04-02T05:43:00.961Z,46.39
2023-04-02T05:44:00.991Z,46.48
2023-04-02T05:45:01.056Z,46.48
2023-04-02T05:46:01.091Z,46.41
2023-04-02T05:47:01.209Z,46.37
2023-04-02T05:48:01.217Z,46.55
2023-04-02T05:49:01.195Z,46.78
2023-04-02T05:50:01.219Z,46.75
2023-04-02T05:51:01.262Z,46.74
2023-04-02T05:52:01.336Z,46.74
2023-04-02T05:53:01.365Z,46.81
2023-04-02T05:54:01.460Z,46.69
2023-04-02T05:55:01.454Z,46.32
2023-04-02T05:56:01.513Z,46.46
2023-04-02T05:57:01.616Z,46.51
2023-04-02T05:58:29.469Z,46.53
2023-04-02T05:59:02.630Z,46.52
2023-04-02T06:00:01.612Z,46.50
2023-04-02T06:01:01.614Z,46.49
2023-04-02T06:02:01.641Z,46.54
2023-04-02T06:03:01.643Z,46.59
2023-04-02T06:04:01.629Z,46.55
2023-04-02T06:05:01.576Z,46.79
2023-04-02T06:06:01.573Z,46.76
2023-04-02T06:07:01.552Z,46.80
2023-04-02T06:08:01.608Z,46.80
2023-04-02T06:09:01.624Z,46.84
2023-04-02T06:10:01.677Z,46.89
2023-04-02T06:11:01.695Z,46.92
2023-04-02T06:12:01.741Z,46.94
2023-04-02T06:13:01.788Z,46.91
2023-04-02T06:14:01.825Z,47.07
2023-04-02T06:15:01.891Z,47.15
2023-04-02T06:16:01.908Z,47.04
2023-04-02T06:17:02.016Z,47.16
2023-04-02T06:18:02.101Z,47.22
2023-04-02T06:19:02.071Z,47.15
2023-04-02T06:20:02.108Z,47.29
2023-04-02T06:21:02.187Z,47.32
2023-04-02T06:22:02.225Z,47.27
2023-04-02T06:23:02.290Z,47.20
2023-04-02T06:24:02.355Z,47.35
2023-04-02T06:25:02.380Z,47.31
2023-04-02T06:26:02.446Z,47.25
2023-04-02T06:27:02.476Z,47.19
2023-04-02T06:28:02.525Z,46.77
2023-04-02T06:29:02.576Z,46.50
2023-04-02T06:30:02.648Z,46.35
2023-04-02T06:31:02.706Z,46.44
2023-04-02T06:32:02.753Z,46.38
2023-04-02T06:33:02.822Z,46.40
2023-04-02T06:34:02.870Z,46.51
2023-04-02T06:35:02.884Z,46.68
2023-04-02T06:36:02.949Z,46.98
2023-04-02T06:37:02.940Z,46.92
2023-04-02T06:38:02.938Z,46.55
2023-04-02T06:39:02.989Z,46.74
2023-04-02T06:40:03.000Z,46.69
2023-04-02T06:41:03.015Z,46.83
2023-04-02T06:42:03.040Z,47.02
2023-04-02T06:43:03.032Z,47.16
2023-04-02T06:44:03.025Z,47.21
2023-04-02T06:45:03.051Z,46.35
2023-04-02T06:46:03.067Z,46.38
2023-04-02T06:47:03.007Z,46.31
2023-04-02T06:48:03.038Z,46.32
2023-04-02T06:49:03.016Z,46.32
2023-04-02T06:50:03.027Z,46.43
2023-04-02T06:51:03.067Z,46.64
2023-04-02T06:52:03.118Z,46.48
2023-04-02T06:53:03.126Z,46.63
2023-04-02T06:54:03.184Z,46.71
2023-04-02T06:55:03.327Z,46.59
2023-04-02T06:56:03.234Z,46.68
2023-04-02T06:57:03.303Z,47.05
2023-04-02T06:58:03.358Z,46.97
2023-04-02T06:59:03.400Z,46.99
2023-04-02T07:00:03.488Z,46.97
2023-04-02T07:01:03.519Z,46.74
2023-04-02T07:02:03.576Z,46.62
2023-04-02T07:03:03.647Z,46.62
2023-04-02T07:04:03.625Z,46.86
2023-04-02T07:05:03.740Z,47.05
2023-04-02T07:06:03.690Z,47.22
2023-04-02T07:07:03.709Z,47.04
2023-04-02T07:08:03.767Z,46.21
2023-04-02T07:09:03.783Z,46.04
2023-04-02T07:10:03.815Z,46.04
2023-04-02T07:11:03.840Z,46.20
2023-04-02T07:12:03.884Z,45.86
2023-04-02T07:13:03.956Z,45.83
2023-04-02T07:14:03.981Z,45.93
2023-04-02T07:15:04.071Z,45.45
2023-04-02T07:16:04.165Z,45.43
2023-04-02T07:17:04.177Z,44.94
2023-04-02T07:18:04.279Z,44.68
2023-04-02T07:19:04.263Z,45.48
2023-04-02T07:20:04.285Z,45.59
2023-04-02T07:21:04.309Z,45.73
2023-04-02T07:22:04.345Z,45.88
2023-04-02T07:23:04.381Z,45.24
2023-04-02T07:24:04.444Z,44.93
2023-04-02T07:25:04.472Z,44.98
2023-04-02T07:26:04.509Z,44.67
2023-04-02T07:27:04.523Z,44.52
2023-04-02T07:28:04.557Z,44.62
2023-04-02T07:29:04.585Z,44.44
2023-04-02T07:30:04.590Z,43.82
2023-04-02T07:31:04.644Z,43.88
2023-04-02T07:32:04.636Z,43.80
2023-04-02T07:33:04.736Z,43.70
2023-04-02T07:34:04.675Z,44.18
2023-04-02T07:35:04.684Z,44.96
2023-04-02T07:36:04.698Z,45.50
2023-04-02T07:37:04.682Z,45.09
2023-04-02T07:38:04.733Z,44.75
2023-04-02T07:39:04.729Z,44.60
2023-04-02T07:40:04.706Z,44.32
2023-04-02T07:41:04.714Z,44.33
2023-04-02T07:42:04.773Z,44.57
2023-04-02T07:43:04.729Z,43.80
2023-04-02T07:44:04.745Z,43.56
2023-04-02T07:45:06.119Z,43.85
2023-04-02T07:46:04.744Z,44.39
2023-04-02T07:47:04.811Z,44.13
2023-04-02T07:48:04.851Z,44.01
2023-04-02T07:49:04.767Z,43.99
2023-04-02T07:50:04.775Z,43.99
2023-04-02T07:51:04.772Z,44.00
2023-04-02T07:52:04.821Z,43.90
2023-04-02T07:53:04.870Z,43.85
2023-04-02T07:54:04.847Z,43.14
2023-04-02T07:55:04.858Z,43.01
2023-04-02T07:56:04.912Z,43.07
2023-04-02T07:57:05.070Z,43.14
2023-04-02T07:58:05.009Z,42.93
2023-04-02T07:59:05.076Z,42.42
2023-04-02T08:00:05.144Z,42.54
2023-04-02T08:01:05.206Z,42.42
2023-04-02T08:02:05.263Z,42.18
2023-04-02T08:03:05.402Z,42.12
2023-04-02T08:04:05.370Z,41.15
2023-04-02T08:05:05.386Z,41.24
2023-04-02T08:06:05.462Z,41.29
2023-04-02T08:07:05.498Z,41.47
2023-04-02T08:08:05.532Z,41.29
2023-04-02T08:09:05.567Z,41.37
2023-04-02T08:10:05.598Z,41.59
2023-04-02T08:11:05.638Z,40.89
2023-04-02T08:12:05.664Z,40.17
2023-04-02T08:13:05.666Z,40.09
2023-04-02T08:14:05.680Z,39.55
2023-04-02T08:15:05.710Z,39.45
2023-04-02T08:16:05.723Z,39.44
2023-04-02T08:17:05.743Z,39.24
2023-04-02T08:18:05.783Z,39.57
2023-04-02T08:19:05.765Z,39.70
2023-04-02T08:20:05.800Z,39.70
2023-04-02T08:21:05.797Z,39.67
2023-04-02T08:22:05.793Z,39.57
2023-04-02T08:23:05.819Z,39.53
2023-04-02T08:24:05.803Z,39.33
2023-04-02T08:25:05.795Z,39.40
2023-04-02T08:26:05.833Z,38.90
2023-04-02T08:27:05.823Z,38.98
2023-04-02T08:28:05.933Z,38.82
2023-04-02T08:29:05.867Z,38.98
2023-04-02T08:30:05.887Z,39.07
2023-04-02T08:31:05.933Z,38.88
2023-04-02T08:32:05.943Z,39.01
2023-04-02T08:33:06.010Z,38.88
2023-04-02T08:34:06.019Z,38.90
2023-04-02T08:35:06.065Z,39.27
2023-04-02T08:36:06.172Z,39.21
2023-04-02T08:37:06.203Z,38.69
2023-04-02T08:38:06.253Z,37.37
2023-04-02T08:39:06.298Z,37.20
2023-04-02T08:40:06.360Z,37.58
2023-04-02T08:41:06.434Z,37.80
2023-04-02T08:42:06.466Z,37.90
2023-04-02T08:43:06.541Z,38.32
2023-04-02T08:44:06.604Z,38.39
2023-04-02T08:45:21.092Z,38.62
2023-04-02T08:46:07.653Z,38.47
2023-04-02T08:47:06.615Z,38.36
2023-04-02T08:48:06.675Z,37.62
2023-04-02T08:49:06.736Z,37.28
2023-04-02T08:50:06.606Z,37.47
2023-04-02T08:51:06.597Z,38.06
2023-04-02T08:52:06.606Z,37.53
2023-04-02T08:53:06.583Z,37.39
2023-04-02T08:54:06.583Z,37.39
2023-04-02T08:55:06.574Z,37.17
2023-04-02T08:56:06.553Z,37.59
2023-04-02T08:57:06.612Z,37.63
2023-04-02T08:58:06.560Z,36.92
2023-04-02T08:59:06.560Z,36.16
2023-04-02T09:00:06.547Z,35.84
2023-04-02T09:01:06.557Z,36.06
2023-04-02T09:02:06.582Z,36.05
2023-04-02T09:03:06.674Z,35.98
2023-04-02T09:04:06.624Z,36.08
2023-04-02T09:05:06.765Z,35.95
2023-04-02T09:06:06.635Z,35.38
2023-04-02T09:07:06.646Z,35.56
2023-04-02T09:08:06.638Z,35.56
2023-04-02T09:09:06.673Z,36.17
2023-04-02T09:10:06.660Z,36.08
2023-04-02T09:11:06.663Z,35.50
2023-04-02T09:12:06.648Z,35.46
2023-04-02T09:13:06.650Z,34.49
2023-04-02T09:14:06.663Z,34.70
2023-04-02T09:15:06.687Z,34.33
2023-04-02T09:16:06.738Z,34.47
2023-04-02T09:17:06.775Z,34.56
2023-04-02T09:18:06.883Z,35.03
2023-04-02T09:19:06.923Z,35.42
2023-04-02T09:20:06.953Z,35.09
2023-04-02T09:21:07.010Z,34.75
2023-04-02T09:22:07.082Z,34.10
2023-04-02T09:23:07.117Z,34.19
2023-04-02T09:24:07.192Z,35.02
2023-04-02T09:25:07.246Z,34.38
2023-04-02T09:26:07.261Z,32.70
2023-04-02T09:27:07.312Z,32.51
2023-04-02T09:28:07.371Z,32.43
2023-04-02T09:29:07.425Z,32.60
2023-04-02T09:30:07.449Z,33.21
2023-04-02T09:31:07.498Z,32.84
2023-04-02T09:32:07.484Z,32.67
2023-04-02T09:33:07.793Z,33.16
2023-04-02T09:34:07.505Z,32.66
2023-04-02T09:35:14.986Z,32.95
2023-04-02T09:36:08.541Z,31.07
2023-04-02T09:37:07.502Z,30.95
2023-04-02T09:38:07.516Z,31.66
2023-04-02T09:39:07.478Z,31.80
2023-04-02T09:40:07.482Z,31.43
2023-04-02T09:41:07.484Z,31.76
2023-04-02T09:42:07.485Z,31.66
2023-04-02T09:43:07.466Z,31.30
2023-04-02T09:44:07.444Z,31.51
2023-04-02T09:45:07.460Z,31.59
2023-04-02T09:46:07.453Z,31.67
2023-04-02T09:47:07.513Z,31.83
2023-04-02T09:48:07.503Z,32.12
2023-04-02T09:49:07.414Z,32.03
2023-04-02T09:50:07.433Z,32.22
2023-04-02T09:51:07.421Z,31.35
2023-04-02T09:52:07.396Z,31.71
2023-04-02T09:53:07.406Z,32.08
2023-04-02T09:54:07.399Z,32.13
2023-04-02T09:55:07.373Z,32.40
2023-04-02T09:56:07.358Z,32.63
2023-04-02T09:57:07.406Z,33.19
2023-04-02T09:58:07.358Z,32.99
2023-04-02T09:59:07.400Z,31.95
2023-04-02T10:00:10.252Z,31.90
2023-04-02T10:01:07.406Z,32.30
2023-04-02T10:02:07.369Z,32.22
2023-04-02T10:03:07.449Z,31.87
2023-04-02T10:04:07.404Z,31.92
2023-04-02T10:05:07.370Z,32.10
2023-04-02T10:06:07.347Z,32.52
2023-04-02T10:07:07.355Z,32.71
2023-04-02T10:08:07.338Z,32.82
2023-04-02T10:09:07.336Z,33.33
2023-04-02T10:10:07.315Z,33.22
2023-04-02T10:11:07.313Z,33.22
2023-04-02T10:12:07.302Z,32.65
2023-04-02T10:13:07.297Z,32.55
2023-04-02T10:14:07.282Z,31.85
2023-04-02T10:15:07.271Z,31.12
2023-04-02T10:16:07.314Z,31.08
2023-04-02T10:17:07.275Z,31.54
2023-04-02T10:18:07.288Z,31.24
2023-04-02T10:19:07.252Z,31.36
2023-04-02T10:20:07.245Z,30.91
2023-04-02T10:21:07.250Z,31.05
2023-04-02T10:22:07.240Z,30.95
2023-04-02T10:23:07.213Z,30.58
2023-04-02T10:24:07.215Z,30.16
2023-04-02T10:25:07.206Z,30.26
2023-04-02T10:26:07.203Z,30.55
2023-04-02T10:27:07.230Z,30.82
2023-04-02T10:28:07.235Z,30.97
2023-04-02T10:29:07.319Z,31.40
2023-04-02T10:30:07.265Z,30.92
2023-04-02T10:31:07.376Z,30.57
2023-04-02T10:32:07.315Z,30.33
2023-04-02T10:33:07.388Z,30.37
2023-04-02T10:34:07.351Z,29.88
2023-04-02T10:35:07.388Z,29.78
2023-04-02T10:36:07.431Z,30.46
2023-04-02T10:37:07.398Z,31.00
2023-04-02T10:38:07.392Z,30.34
2023-04-02T10:39:07.411Z,30.36
2023-04-02T10:40:07.446Z,29.49
2023-04-02T10:41:07.433Z,28.89
2023-04-02T10:42:07.455Z,29.06
2023-04-02T10:43:07.506Z,29.54
2023-04-02T10:44:18.807Z,28.86
2023-04-02T10:45:08.497Z,29.07
2023-04-02T10:46:07.503Z,29.23
2023-04-02T10:47:07.484Z,29.23
2023-04-02T10:48:07.495Z,30.23
2023-04-02T10:49:07.597Z,29.44
2023-04-02T10:50:07.451Z,29.59
2023-04-02T10:51:07.444Z,30.06
2023-04-02T10:52:07.461Z,29.30
2023-04-02T10:53:07.447Z,29.26
2023-04-02T10:54:07.448Z,29.86
2023-04-02T10:55:07.426Z,30.19
2023-04-02T10:56:07.431Z,30.58
2023-04-02T10:57:07.434Z,30.89
2023-04-02T10:58:07.404Z,31.56
2023-04-02T10:59:07.404Z,32.04
2023-04-02T11:00:07.375Z,31.83
2023-04-02T11:01:07.388Z,31.65
2023-04-02T11:02:07.368Z,31.54
2023-04-02T11:03:07.423Z,31.54
2023-04-02T11:04:07.368Z,31.41
2023-04-02T11:05:07.359Z,31.71
2023-04-02T11:06:07.375Z,31.77
2023-04-02T11:07:14.342Z,31.93
2023-04-02T11:08:08.361Z,31.65
2023-04-02T11:09:07.391Z,31.51
2023-04-02T11:10:07.357Z,31.82
2023-04-02T11:11:07.311Z,31.76
2023-04-02T11:12:07.302Z,32.12
2023-04-02T11:13:07.320Z,31.29
2023-04-02T11:14:07.296Z,30.78
2023-04-02T11:15:07.328Z,30.76
2023-04-02T11:16:07.298Z,30.61
2023-04-02T11:17:07.284Z,30.57
2023-04-02T11:18:07.289Z,30.51
2023-04-02T11:19:07.264Z,30.74
2023-04-02T11:20:07.279Z,30.89
2023-04-02T11:21:07.231Z,30.78
2023-04-02T11:22:07.226Z,30.57
2023-04-02T11:23:07.240Z,30.52
2023-04-02T11:24:07.215Z,30.69
2023-04-02T11:25:07.210Z,30.87
2023-04-02T11:26:07.200Z,31.40
2023-04-02T11:27:07.237Z,31.55
2023-04-02T11:28:07.206Z,31.81
2023-04-02T11:29:07.212Z,32.10
2023-04-02T11:30:07.219Z,31.26
2023-04-02T11:31:07.276Z,30.69
2023-04-02T11:32:07.257Z,30.81
2023-04-02T11:33:07.277Z,30.43
2023-04-02T11:34:07.292Z,30.24
2023-04-02T11:35:07.899Z,30.39
2023-04-02T11:36:07.339Z,30.44
2023-04-02T11:37:07.350Z,31.08
2023-04-02T11:38:07.336Z,30.22
2023-04-02T11:39:16.562Z,29.98
2023-04-02T11:40:08.346Z,30.00
2023-04-02T11:41:07.349Z,29.98
2023-04-02T11:42:07.330Z,29.41
2023-04-02T11:43:07.320Z,29.87
2023-04-02T11:44:07.321Z,28.61
2023-04-02T11:45:07.310Z,29.54
2023-04-02T11:46:07.310Z,32.94
2023-04-02T11:47:07.292Z,32.75
2023-04-02T11:48:07.352Z,30.96
2023-04-02T11:49:07.341Z,30.28
2023-04-02T11:50:07.298Z,31.41
2023-04-02T11:51:07.289Z,32.08
2023-04-02T11:52:12.276Z,31.84
2023-04-02T11:53:08.260Z,32.43
2023-04-02T11:54:07.264Z,32.67
2023-04-02T11:55:07.263Z,33.60
2023-04-02T11:56:07.232Z,33.34
2023-04-02T11:57:07.229Z,33.24
2023-04-02T11:58:07.238Z,32.18
2023-04-02T11:59:07.241Z,32.46
2023-04-02T12:00:07.209Z,32.46
2023-04-02T12:01:07.193Z,32.73
2023-04-02T12:02:07.234Z,33.06
2023-04-02T12:03:07.237Z,33.31
2023-04-02T12:04:07.173Z,33.72
2023-04-02T12:05:07.243Z,32.49
2023-04-02T12:06:07.173Z,32.54
2023-04-02T12:07:07.191Z,33.00
2023-04-02T12:08:07.165Z,33.15
2023-04-02T12:09:07.148Z,33.53
2023-04-02T12:10:07.152Z,33.65
2023-04-02T12:11:07.152Z,33.37
2023-04-02T12:12:07.137Z,33.37
2023-04-02T12:13:07.133Z,33.37
2023-04-02T12:14:07.196Z,33.97
2023-04-02T12:15:07.205Z,33.10
2023-04-02T12:16:07.241Z,33.22
2023-04-02T12:17:09.825Z,33.15
2023-04-02T12:18:07.301Z,32.58
2023-04-02T12:19:07.317Z,33.70
2023-04-02T12:20:07.246Z,33.53
2023-04-02T12:21:07.215Z,33.69
2023-04-02T12:22:07.226Z,33.97
2023-04-02T12:23:07.198Z,33.83
2023-04-02T12:24:07.199Z,33.62
2023-04-02T12:25:07.208Z,33.24
2023-04-02T12:26:07.197Z,32.82
2023-04-02T12:27:07.186Z,34.25
2023-04-02T12:28:07.184Z,34.07
2023-04-02T12:29:07.174Z,35.40
2023-04-02T12:30:07.150Z,34.74
2023-04-02T12:31:07.199Z,33.71
2023-04-02T12:32:07.149Z,33.60
2023-04-02T12:33:07.194Z,33.56
2023-04-02T12:34:07.135Z,33.71
2023-04-02T12:35:07.129Z,33.39
2023-04-02T12:36:07.144Z,33.78
2023-04-02T12:37:07.107Z,32.75
2023-04-02T12:38:07.117Z,31.85
2023-04-02T12:39:07.098Z,32.51
2023-04-02T12:40:07.163Z,33.03
2023-04-02T12:41:07.081Z,33.17
2023-04-02T12:42:07.072Z,32.80
2023-04-02T12:43:07.068Z,32.81
2023-04-02T12:44:07.058Z,32.48
2023-04-02T12:45:07.092Z,32.67
2023-04-02T12:46:07.061Z,32.77
2023-04-02T12:47:07.047Z,32.29
2023-04-02T12:48:07.104Z,32.33
2023-04-02T12:49:07.016Z,33.14
2023-04-02T12:50:07.123Z,33.04
2023-04-02T12:51:07.031Z,32.60
2023-04-02T12:52:07.001Z,31.92
2023-04-02T12:53:06.995Z,31.47